Time;durP1;ratioP1;P1;durP2;ratioP2;P2;SDS_P1;SDS_P2;PMS_P1;PMS_P2;Temp;Humidity;BMP_temperature;BMP_pressure;BME280_temperature;BME280_humidity;BME280_pressure;Samples;Min_cycle;Max_cycle;Signal;HPM_P1;HPM_P2
2023/08/18 00:00:43;;;;;;;6.60;3.53;;;16.50;99.90;;;;;;5056469;28;20127;-39
2023/08/18 00:03:09;;;;;;;7.93;3.88;;;16.40;99.90;;;;;;5054079;28;20237;-44
2023/08/18 00:05:34;;;;;;;6.22;3.70;;;16.40;99.90;;;;;;5055800;28;20056;-41
2023/08/18 00:08:00;;;;;;;7.38;4.28;;;16.40;99.90;;;;;;5076383;28;20105;-40
2023/08/18 00:10:25;;;;;;;6.15;3.90;;;16.40;99.90;;;;;;5074958;28;20063;-40
2023/08/18 00:12:51;;;;;;;5.53;3.30;;;16.40;99.90;;;;;;5075408;28;20040;-39
2023/08/18 00:15:17;;;;;;;8.30;3.28;;;16.40;99.90;;;;;;5059152;28;20044;-39
2023/08/18 00:17:42;;;;;;;4.63;3.47;;;16.40;99.90;;;;;;5062300;28;20040;-43
2023/08/18 00:20:09;;;;;;;5.00;3.50;;;16.30;99.90;;;;;;5076000;28;20050;-39
2023/08/18 00:22:34;;;;;;;5.03;3.42;;;16.30;99.90;;;;;;5063956;28;20049;-41
2023/08/18 00:25:00;;;;;;;6.68;4.15;;;16.30;99.90;;;;;;5069384;28;20093;-45
2023/08/18 00:27:26;;;;;;;5.82;3.20;;;16.30;99.90;;;;;;5068504;28;20155;-41
2023/08/18 00:29:51;;;;;;;5.97;3.50;;;16.30;99.90;;;;;;5075691;28;20550;-43
2023/08/18 00:32:17;;;;;;;5.78;3.15;;;16.30;99.90;;;;;;5075324;28;20117;-40
2023/08/18 00:34:43;;;;;;;7.82;3.63;;;16.30;99.90;;;;;;5075886;28;20629;-40
2023/08/18 00:37:09;;;;;;;5.05;3.58;;;16.20;99.90;;;;;;5075010;28;20044;-39
2023/08/18 00:39:34;;;;;;;5.55;3.40;;;16.20;99.90;;;;;;5075903;28;20482;-42
2023/08/18 00:42:00;;;;;;;7.20;3.70;;;16.20;99.90;;;;;;5076344;28;20046;-43
2023/08/18 00:44:26;;;;;;;3.72;3.10;;;16.20;99.90;;;;;;5073568;28;20384;-41
2023/08/18 00:46:52;;;;;;;3.05;2.70;;;16.30;99.90;;;;;;5075243;28;20040;-38
2023/08/18 00:49:18;;;;;;;4.32;3.20;;;16.30;99.90;;;;;;5076067;28;20052;-40
2023/08/18 00:51:45;;;;;;;3.97;2.75;;;16.30;99.90;;;;;;5068969;28;20048;-42
2023/08/18 00:54:12;;;;;;;6.60;2.90;;;16.30;99.90;;;;;;5054799;28;20074;-42
2023/08/18 00:56:39;;;;;;;3.75;2.80;;;16.30;99.90;;;;;;5054491;28;20048;-39
2023/08/18 00:59:06;;;;;;;3.78;2.60;;;16.30;99.90;;;;;;5052993;28;20136;-44
2023/08/18 01:01:33;;;;;;;4.18;2.60;;;16.30;99.90;;;;;;5053041;28;20053;-39
2023/08/18 01:03:59;;;;;;;5.32;2.55;;;16.30;99.90;;;;;;5053679;28;20398;-43
2023/08/18 01:06:25;;;;;;;6.63;2.97;;;16.30;99.90;;;;;;5054273;28;20447;-41
2023/08/18 01:08:51;;;;;;;5.18;2.63;;;16.30;99.90;;;;;;5054877;28;20071;-40
2023/08/18 01:11:24;;;;;;;6.22;2.88;;;16.30;99.90;;;;;;5055052;28;20090;-42
2023/08/18 01:14:24;;;;;;;4.20;2.90;;;16.20;99.90;;;;;;5052025;28;20419;-42
2023/08/18 01:16:59;;;;;;;4.38;2.97;;;16.20;99.90;;;;;;5047032;28;20049;-43
2023/08/18 01:19:26;;;;;;;4.63;2.70;;;16.20;99.90;;;;;;5060503;28;20068;-39
2023/08/18 01:21:55;;;;;;;3.30;2.80;;;16.20;99.90;;;;;;5068890;28;20053;-40
2023/08/18 01:24:26;;;;;;;5.13;2.30;;;16.20;99.90;;;;;;5049896;28;20331;-42
2023/08/18 01:26:52;;;;;;;3.65;3.17;;;16.20;99.90;;;;;;5054235;28;20084;-40
2023/08/18 01:29:23;;;;;;;5.78;2.90;;;16.30;99.90;;;;;;5054831;28;20543;-40
2023/08/18 01:31:59;;;;;;;7.50;2.92;;;16.30;99.90;;;;;;5036903;28;20048;-42
2023/08/18 01:34:27;;;;;;;5.53;2.63;;;16.30;99.90;;;;;;5054155;28;20740;-43
2023/08/18 01:36:56;;;;;;;4.47;2.72;;;16.30;99.90;;;;;;5070068;28;20564;-39
2023/08/18 01:39:22;;;;;;;4.80;2.40;;;16.30;99.90;;;;;;5073518;28;20330;-41
2023/08/18 01:41:49;;;;;;;4.63;2.80;;;16.30;99.90;;;;;;5073953;28;20659;-39
2023/08/18 01:44:16;;;;;;;7.15;3.22;;;16.30;99.90;;;;;;5074418;28;20192;-45
2023/08/18 01:46:41;;;;;;;4.60;2.78;;;16.30;99.90;;;;;;5073425;28;20044;-40
2023/08/18 01:49:07;;;;;;;6.53;3.03;;;16.30;99.90;;;;;;5074274;28;20063;-44
2023/08/18 01:51:33;;;;;;;5.20;2.95;;;16.30;99.90;;;;;;5069278;28;20080;-40
2023/08/18 01:53:58;;;;;;;5.38;3.45;;;16.20;99.90;;;;;;5054120;28;20104;-40
2023/08/18 01:56:24;;;;;;;3.80;3.15;;;16.20;99.90;;;;;;5053376;28;20119;-38
2023/08/18 01:58:50;;;;;;;4.35;3.40;;;16.20;99.90;;;;;;5054260;28;20040;-42
2023/08/18 02:01:15;;;;;;;4.78;3.25;;;16.20;99.90;;;;;;5049216;28;20048;-42
2023/08/18 02:03:41;;;;;;;5.82;3.60;;;16.20;99.90;;;;;;5053175;28;20119;-41
2023/08/18 02:06:08;;;;;;;5.55;3.47;;;16.20;99.90;;;;;;5051655;28;20503;-38
2023/08/18 02:08:33;;;;;;;6.03;3.17;;;16.20;99.90;;;;;;5053749;28;20055;-42
2023/08/18 02:11:03;;;;;;;4.45;3.50;;;16.20;99.90;;;;;;5053388;28;20044;-43
2023/08/18 02:13:30;;;;;;;5.47;3.30;;;16.20;99.90;;;;;;5052841;28;20469;-40
2023/08/18 02:15:56;;;;;;;6.20;2.83;;;16.20;99.90;;;;;;5040124;28;20049;-41
2023/08/18 02:18:22;;;;;;;6.18;3.03;;;16.20;99.90;;;;;;5055036;28;20053;-39
2023/08/18 02:20:58;;;;;;;6.20;3.58;;;16.20;99.90;;;;;;5054418;28;20499;-40
2023/08/18 02:23:24;;;;;;;5.30;2.83;;;16.20;99.90;;;;;;5051109;28;20044;-40
2023/08/18 02:25:50;;;;;;;4.63;3.60;;;16.20;99.90;;;;;;5053244;28;20045;-42
2023/08/18 02:28:18;;;;;;;5.78;2.83;;;16.10;99.90;;;;;;5055117;28;20554;-44
2023/08/18 02:30:44;;;;;;;4.50;3.55;;;16.10;99.90;;;;;;5054087;28;20086;-41
2023/08/18 02:33:10;;;;;;;6.43;3.65;;;16.10;99.90;;;;;;5053421;28;20080;-43
2023/08/18 02:35:35;;;;;;;3.90;3.10;;;16.10;99.90;;;;;;5053207;28;20164;-39
2023/08/18 02:38:01;;;;;;;6.30;3.80;;;16.10;99.90;;;;;;5051667;28;20052;-42
2023/08/18 02:40:27;;;;;;;7.93;3.58;;;16.10;99.90;;;;;;5054336;28;20080;-39
2023/08/18 02:42:52;;;;;;;3.95;3.15;;;16.10;99.90;;;;;;5053119;28;20471;-39
2023/08/18 02:45:18;;;;;;;6.57;3.50;;;16.10;99.90;;;;;;5053815;28;20060;-40
2023/08/18 02:47:44;;;;;;;6.40;3.53;;;16.10;99.90;;;;;;5054328;28;20056;-41
2023/08/18 02:50:10;;;;;;;5.18;3.80;;;16.10;99.90;;;;;;5054019;28;20048;-42
2023/08/18 02:52:36;;;;;;;5.57;4.43;;;16.10;99.90;;;;;;5051990;28;20610;-43
2023/08/18 02:55:01;;;;;;;5.43;3.50;;;16.20;99.90;;;;;;5053707;28;20079;-43
2023/08/18 02:57:27;;;;;;;5.15;3.90;;;16.20;99.90;;;;;;5054346;28;20165;-39
2023/08/18 02:59:53;;;;;;;4.85;3.72;;;16.20;99.90;;;;;;5054120;28;20055;-39
2023/08/18 03:02:18;;;;;;;5.93;4.05;;;16.20;99.90;;;;;;5053449;28;20049;-40
2023/08/18 03:04:44;;;;;;;7.53;4.05;;;16.20;99.90;;;;;;5051347;28;20072;-42
2023/08/18 03:07:09;;;;;;;4.90;3.55;;;16.20;99.90;;;;;;5053037;28;20474;-41
2023/08/18 03:09:35;;;;;;;6.97;4.15;;;16.20;99.90;;;;;;5053008;28;20327;-39
2023/08/18 03:12:01;;;;;;;7.13;4.10;;;16.20;99.90;;;;;;5053231;28;20484;-45
2023/08/18 03:14:26;;;;;;;6.22;4.32;;;16.20;99.90;;;;;;5047829;28;20609;-42
2023/08/18 03:16:52;;;;;;;6.70;4.38;;;16.30;99.90;;;;;;5052878;28;20577;-39
2023/08/18 03:19:18;;;;;;;7.60;5.00;;;16.30;99.90;;;;;;5053802;28;20057;-39
2023/08/18 03:21:43;;;;;;;7.07;4.32;;;16.30;99.90;;;;;;5052864;28;20109;-42
2023/08/18 03:24:09;;;;;;;5.90;4.82;;;16.40;99.90;;;;;;5053045;28;20048;-42
2023/08/18 03:26:35;;;;;;;7.25;4.65;;;16.30;99.90;;;;;;5056461;28;20044;-41
2023/08/18 03:29:00;;;;;;;7.60;4.28;;;16.30;99.90;;;;;;5056786;28;20147;-44
2023/08/18 03:31:26;;;;;;;10.25;5.03;;;16.30;99.90;;;;;;5057510;28;20178;-41
2023/08/18 03:33:52;;;;;;;5.60;4.90;;;16.30;99.90;;;;;;5056296;28;20160;-41
2023/08/18 03:36:18;;;;;;;5.93;4.25;;;16.40;99.90;;;;;;5056739;28;20040;-38
2023/08/18 03:38:44;;;;;;;6.15;4.60;;;16.40;99.90;;;;;;5057056;28;20064;-43
2023/08/18 03:41:09;;;;;;;8.75;4.55;;;16.40;99.90;;;;;;5057085;28;20052;-44
2023/08/18 03:43:35;;;;;;;6.80;4.53;;;16.40;99.90;;;;;;5056128;28;20044;-39
2023/08/18 03:46:25;;;;;;;7.55;5.07;;;16.40;99.90;;;;;;5056145;28;20098;-42
2023/08/18 03:48:51;;;;;;;9.88;4.93;;;16.40;99.90;;;;;;5055802;28;20316;-39
2023/08/18 03:51:17;;;;;;;5.82;5.18;;;16.40;99.90;;;;;;5054609;28;20382;-41
2023/08/18 03:53:43;;;;;;;8.15;4.72;;;16.40;99.90;;;;;;5052887;28;20046;-41
2023/08/18 03:56:09;;;;;;;9.77;5.00;;;16.40;99.90;;;;;;5055548;28;20102;-39
2023/08/18 03:58:35;;;;;;;6.85;5.95;;;16.40;99.90;;;;;;5055580;28;20159;-39
2023/08/18 04:01:03;;;;;;;10.35;5.70;;;16.30;99.90;;;;;;5056121;28;20703;-42
2023/08/18 04:03:30;;;;;;;6.68;4.75;;;16.30;99.90;;;;;;5053878;28;20063;-43
2023/08/18 04:05:55;;;;;;;6.97;5.35;;;16.30;99.90;;;;;;5054054;28;20045;-41
2023/08/18 04:08:21;;;;;;;9.60;5.80;;;16.30;99.90;;;;;;5056070;28;20044;-41
2023/08/18 04:10:46;;;;;;;9.57;5.28;;;16.30;99.90;;;;;;5056384;28;20794;-41
2023/08/18 04:13:13;;;;;;;6.72;5.32;;;16.30;99.90;;;;;;5055619;28;20075;-41
2023/08/18 04:15:39;;;;;;;7.88;5.25;;;16.30;99.90;;;;;;5048692;28;20056;-42
2023/08/18 04:18:04;;;;;;;5.80;4.97;;;16.30;99.90;;;;;;5055783;28;20044;-43
2023/08/18 04:20:31;;;;;;;9.48;5.90;;;16.30;99.90;;;;;;5056177;28;20058;-40
2023/08/18 04:22:57;;;;;;;6.88;5.32;;;16.30;99.90;;;;;;5053712;28;20052;-43
2023/08/18 04:25:23;;;;;;;9.40;6.18;;;16.30;99.90;;;;;;5058272;28;20048;-41
2023/08/18 04:27:49;;;;;;;9.70;6.57;;;16.30;99.90;;;;;;5075886;28;20040;-40
2023/08/18 04:30:14;;;;;;;13.18;7.43;;;16.30;99.90;;;;;;5057465;28;20457;-41
2023/08/18 04:32:41;;;;;;;14.85;7.40;;;16.30;99.90;;;;;;5053622;28;20065;-42
2023/08/18 04:35:07;;;;;;;9.98;7.18;;;16.30;99.90;;;;;;5055228;28;20147;-39
2023/08/18 04:37:32;;;;;;;11.40;6.93;;;16.30;99.90;;;;;;5055580;28;20047;-43
2023/08/18 04:39:58;;;;;;;10.93;7.30;;;16.30;99.90;;;;;;5055449;28;20052;-40
2023/08/18 04:42:23;;;;;;;10.10;6.53;;;16.30;99.90;;;;;;5054921;28;20048;-39
2023/08/18 04:44:50;;;;;;;12.60;7.32;;;16.30;99.90;;;;;;5054763;28;20055;-39
2023/08/18 04:47:16;;;;;;;10.13;6.57;;;16.30;99.90;;;;;;5054167;28;20494;-45
2023/08/18 04:49:42;;;;;;;11.50;7.22;;;16.30;99.90;;;;;;5054436;28;20056;-43
2023/08/18 04:52:10;;;;;;;8.80;6.82;;;16.30;99.90;;;;;;5046024;28;20411;-42
2023/08/18 04:54:35;;;;;;;10.25;6.70;;;16.30;99.90;;;;;;5083275;28;20154;-40
2023/08/18 04:57:03;;;;;;;10.57;6.35;;;16.30;99.90;;;;;;5053048;28;20833;-40
2023/08/18 04:59:29;;;;;;;11.65;8.50;;;16.30;99.90;;;;;;5054330;28;20059;-39
2023/08/18 05:01:55;;;;;;;11.15;7.95;;;16.30;99.90;;;;;;5054419;28;20149;-39
2023/08/18 05:04:22;;;;;;;12.55;8.27;;;16.30;99.90;;;;;;5055083;28;20056;-40
2023/08/18 05:06:47;;;;;;;13.43;8.40;;;16.30;99.90;;;;;;5054532;28;20041;-39
2023/08/18 05:09:13;;;;;;;13.13;7.90;;;16.20;99.90;;;;;;5054958;28;20430;-42
2023/08/18 05:11:39;;;;;;;10.43;8.35;;;16.20;99.90;;;;;;5054631;28;20072;-40
2023/08/18 05:14:04;;;;;;;15.98;8.63;;;16.20;99.90;;;;;;5050258;28;20114;-40
2023/08/18 05:16:30;;;;;;;10.98;8.23;;;16.10;99.90;;;;;;5050727;28;20386;-41
2023/08/18 05:18:57;;;;;;;11.63;8.00;;;16.10;99.90;;;;;;5053358;28;20074;-43
2023/08/18 05:21:23;;;;;;;11.85;8.75;;;16.10;99.90;;;;;;5053584;28;20049;-42
2023/08/18 05:23:49;;;;;;;11.40;8.85;;;16.10;99.90;;;;;;5049986;28;20759;-41
2023/08/18 05:26:15;;;;;;;12.77;8.95;;;16.00;99.90;;;;;;5054054;28;20079;-39
2023/08/18 05:28:41;;;;;;;11.27;7.80;;;16.00;99.90;;;;;;5055141;28;20131;-39
2023/08/18 05:31:10;;;;;;;11.77;8.27;;;16.00;99.90;;;;;;5055184;28;20074;-39
2023/08/18 05:33:36;;;;;;;12.68;8.48;;;16.00;99.90;;;;;;5052320;28;20118;-41
2023/08/18 05:36:04;;;;;;;9.32;8.38;;;16.10;99.90;;;;;;5064421;28;20059;-41
2023/08/18 05:38:29;;;;;;;13.45;8.75;;;16.10;99.90;;;;;;5074250;28;20048;-47
2023/08/18 05:41:09;;;;;;;14.77;8.95;;;16.10;99.90;;;;;;5064194;28;20145;-39
2023/08/18 05:43:35;;;;;;;10.70;8.88;;;16.10;99.90;;;;;;5070853;28;20071;-40
2023/08/18 05:46:01;;;;;;;10.55;8.48;;;16.10;99.90;;;;;;5072499;28;20571;-43
2023/08/18 05:48:27;;;;;;;13.73;9.23;;;16.10;99.90;;;;;;5068899;28;20131;-39
2023/08/18 05:50:52;;;;;;;15.88;10.45;;;16.10;99.90;;;;;;5067514;28;20076;-41
2023/08/18 05:53:19;;;;;;;15.85;9.57;;;16.10;99.90;;;;;;5055048;28;20139;-43
2023/08/18 05:55:46;;;;;;;11.82;9.88;;;16.10;99.90;;;;;;5052347;28;20105;-40
2023/08/18 05:58:12;;;;;;;12.73;10.50;;;16.20;99.90;;;;;;5053685;28;20075;-38
2023/08/18 06:00:38;;;;;;;15.02;10.00;;;16.20;99.90;;;;;;5054261;28;20126;-44
2023/08/18 06:03:04;;;;;;;15.98;10.38;;;16.20;99.90;;;;;;5052625;28;20056;-41
2023/08/18 06:05:30;;;;;;;14.57;11.40;;;16.20;99.90;;;;;;5054769;28;20037;-43
2023/08/18 06:07:56;;;;;;;18.58;11.55;;;16.20;99.90;;;;;;5054885;28;20864;-40
2023/08/18 06:10:22;;;;;;;15.40;12.05;;;16.20;99.90;;;;;;5053327;28;20049;-38
2023/08/18 06:12:49;;;;;;;14.73;12.07;;;16.20;99.90;;;;;;5053497;28;20036;-39
2023/08/18 06:15:17;;;;;;;17.50;11.75;;;16.30;99.90;;;;;;5047865;28;20407;-42
2023/08/18 06:17:42;;;;;;;16.52;12.20;;;16.30;99.90;;;;;;5061380;28;20048;-41
2023/08/18 06:20:09;;;;;;;18.20;12.90;;;16.30;99.90;;;;;;5074840;28;20384;-39
2023/08/18 06:22:35;;;;;;;15.98;12.90;;;16.30;99.90;;;;;;5068954;28;20083;-41
2023/08/18 06:25:00;;;;;;;15.10;12.65;;;16.30;99.90;;;;;;5073808;28;20058;-43
2023/08/18 06:27:26;;;;;;;25.30;13.63;;;16.40;99.90;;;;;;5073901;28;20036;-43
2023/08/18 06:29:52;;;;;;;20.50;13.48;;;16.40;99.90;;;;;;5073720;28;20040;-39
2023/08/18 06:32:18;;;;;;;18.20;14.02;;;16.50;99.90;;;;;;5060909;28;20048;-40
2023/08/18 06:34:44;;;;;;;19.13;13.68;;;16.50;99.90;;;;;;5058906;28;20319;-43
2023/08/18 06:37:10;;;;;;;19.13;12.50;;;16.60;99.90;;;;;;5071724;28;20051;-45
2023/08/18 06:39:35;;;;;;;14.55;12.75;;;16.60;99.90;;;;;;5067837;28;20137;-40
2023/08/18 06:42:01;;;;;;;19.70;13.80;;;16.70;99.90;;;;;;5059527;28;20165;-42
2023/08/18 06:44:27;;;;;;;17.98;13.00;;;16.70;99.90;;;;;;5073342;28;20538;-40
2023/08/18 06:46:52;;;;;;;17.65;13.27;;;16.70;99.90;;;;;;5074076;28;20083;-40
2023/08/18 06:49:18;;;;;;;15.82;12.68;;;16.70;99.90;;;;;;5060662;28;20134;-38
2023/08/18 06:51:43;;;;;;;19.13;13.15;;;16.70;99.90;;;;;;5060033;28;20045;-42
2023/08/18 06:54:13;;;;;;;22.67;13.48;;;16.70;99.90;;;;;;5046578;28;20423;-41
2023/08/18 06:56:39;;;;;;;21.20;13.07;;;16.70;99.90;;;;;;5056719;28;20483;-42
2023/08/18 06:59:05;;;;;;;18.88;12.63;;;16.70;99.90;;;;;;5057306;28;20059;-46
2023/08/18 07:01:30;;;;;;;16.60;12.98;;;16.80;99.90;;;;;;5065756;28;20470;-44
2023/08/18 07:03:56;;;;;;;16.17;12.68;;;16.80;99.90;;;;;;5077294;28;20044;-41
2023/08/18 07:06:22;;;;;;;17.15;12.35;;;16.80;99.90;;;;;;5077630;28;20044;-38
2023/08/18 07:08:48;;;;;;;16.10;12.68;;;16.80;99.90;;;;;;5077709;28;20138;-40
2023/08/18 07:11:14;;;;;;;19.10;12.95;;;16.90;99.90;;;;;;5077728;28;20401;-41
2023/08/18 07:13:40;;;;;;;17.98;12.90;;;16.80;99.90;;;;;;5076186;28;20056;-43
2023/08/18 07:16:05;;;;;;;15.20;12.23;;;16.90;99.90;;;;;;5082429;28;20063;-41
2023/08/18 07:18:31;;;;;;;15.35;12.98;;;16.90;99.90;;;;;;5057740;28;20128;-43
2023/08/18 07:20:59;;;;;;;19.85;14.15;;;16.90;99.90;;;;;;5076400;28;20130;-46
2023/08/18 07:23:25;;;;;;;19.83;13.68;;;16.90;99.90;;;;;;5058974;28;20056;-41
2023/08/18 07:25:51;;;;;;;15.90;13.48;;;16.90;99.90;;;;;;5058677;28;20463;-41
2023/08/18 07:28:16;;;;;;;16.27;13.40;;;16.90;99.90;;;;;;5056793;28;20114;-44
2023/08/18 07:30:42;;;;;;;18.38;14.60;;;17.00;99.90;;;;;;5056923;28;20145;-44
2023/08/18 07:33:08;;;;;;;16.60;14.23;;;16.90;99.90;;;;;;5055358;28;20448;-41
2023/08/18 07:35:34;;;;;;;21.88;14.90;;;16.90;99.90;;;;;;5076211;28;20055;-41
2023/08/18 07:38:00;;;;;;;19.63;13.93;;;16.90;99.90;;;;;;5065843;28;20051;-42
2023/08/18 07:40:27;;;;;;;14.88;13.27;;;16.90;99.90;;;;;;5056231;28;20053;-41
2023/08/18 07:42:53;;;;;;;20.23;13.88;;;16.90;99.90;;;;;;5054627;28;20131;-40
2023/08/18 07:45:19;;;;;;;17.02;14.13;;;16.90;99.90;;;;;;5053447;28;20051;-40
2023/08/18 07:47:46;;;;;;;18.25;15.50;;;16.90;99.90;;;;;;5053803;28;20410;-42
2023/08/18 07:50:13;;;;;;;19.15;14.57;;;17.00;99.90;;;;;;5053955;28;20045;-39
2023/08/18 07:52:41;;;;;;;19.52;15.85;;;17.00;99.90;;;;;;5048598;28;20055;-42
2023/08/18 07:55:07;;;;;;;19.52;15.25;;;17.00;99.90;;;;;;5052937;28;20048;-39
2023/08/18 07:57:34;;;;;;;21.15;16.45;;;17.10;99.90;;;;;;5053772;28;20132;-42
2023/08/18 08:00:07;;;;;;;24.27;16.80;;;17.10;99.90;;;;;;5055700;28;20479;-42
2023/08/18 08:02:32;;;;;;;22.83;17.20;;;17.10;99.90;;;;;;5053797;28;20155;-39
2023/08/18 08:04:58;;;;;;;25.25;18.42;;;17.10;99.90;;;;;;5053761;28;20048;-43
2023/08/18 08:07:24;;;;;;;24.23;17.45;;;17.10;99.90;;;;;;5055314;28;20120;-45
2023/08/18 08:09:52;;;;;;;22.90;16.90;;;17.20;99.90;;;;;;5053490;28;20052;-44
2023/08/18 08:12:17;;;;;;;23.95;19.10;;;17.30;99.90;;;;;;5056841;28;20059;-39
2023/08/18 08:14:43;;;;;;;27.13;16.60;;;17.30;99.90;;;;;;5048753;28;20048;-41
2023/08/18 08:17:09;;;;;;;23.35;16.42;;;17.30;99.90;;;;;;5052867;28;20733;-40
2023/08/18 08:19:35;;;;;;;20.70;15.07;;;17.40;99.90;;;;;;5051914;28;20047;-41
2023/08/18 08:22:03;;;;;;;19.63;13.80;;;17.50;99.90;;;;;;5052832;28;20052;-46
2023/08/18 08:24:29;;;;;;;15.38;12.75;;;17.60;99.90;;;;;;5051467;28;20466;-41
2023/08/18 08:26:55;;;;;;;15.45;12.07;;;17.70;99.90;;;;;;5051233;28;20153;-43
2023/08/18 08:29:20;;;;;;;17.23;13.30;;;17.70;99.90;;;;;;5050303;28;20595;-44
2023/08/18 08:31:46;;;;;;;17.60;12.57;;;17.80;99.90;;;;;;5035032;28;20107;-43
2023/08/18 08:34:12;;;;;;;15.80;13.23;;;17.80;99.90;;;;;;5051865;28;20059;-43
2023/08/18 08:36:37;;;;;;;15.65;11.25;;;18.00;99.90;;;;;;5034017;28;20461;-40
2023/08/18 08:39:03;;;;;;;15.85;11.95;;;18.00;99.90;;;;;;5052543;28;20222;-41
2023/08/18 08:41:30;;;;;;;14.10;10.60;;;18.00;99.90;;;;;;5053405;28;21257;-42
2023/08/18 08:43:55;;;;;;;15.07;10.38;;;18.10;99.90;;;;;;5085570;27;20572;-45
2023/08/18 08:46:22;;;;;;;13.88;10.40;;;18.00;99.90;;;;;;5051630;28;20764;-42
2023/08/18 08:48:50;;;;;;;16.50;11.18;;;18.00;99.90;;;;;;5051941;28;20056;-40
2023/08/18 08:51:18;;;;;;;15.73;11.30;;;18.10;99.90;;;;;;5051521;28;20048;-46
2023/08/18 08:53:49;;;;;;;14.43;10.30;;;18.10;99.90;;;;;;5052992;28;20040;-44
2023/08/18 08:56:17;;;;;;;15.38;11.25;;;18.10;99.90;;;;;;5051306;28;20055;-39
2023/08/18 08:58:43;;;;;;;15.95;10.68;;;18.10;99.90;;;;;;5049446;28;20097;-41
2023/08/18 09:01:09;;;;;;;17.00;10.43;;;18.10;99.90;;;;;;5050932;28;20053;-40
2023/08/18 09:03:36;;;;;;;14.13;9.82;;;18.20;99.90;;;;;;5051724;28;20051;-42
2023/08/18 09:06:02;;;;;;;14.73;9.43;;;18.30;99.90;;;;;;5049803;28;20048;-45
2023/08/18 09:08:27;;;;;;;13.05;10.00;;;18.30;99.90;;;;;;5051033;28;20078;-40
2023/08/18 09:10:53;;;;;;;14.57;10.73;;;18.40;99.90;;;;;;5081500;27;20510;-42
2023/08/18 09:13:19;;;;;;;12.85;9.68;;;18.50;99.90;;;;;;5052759;28;20060;-41
2023/08/18 09:15:45;;;;;;;17.08;9.35;;;18.60;99.90;;;;;;5030045;28;20139;-44
2023/08/18 09:18:17;;;;;;;11.20;8.52;;;18.70;99.90;;;;;;5051192;28;20409;-41
2023/08/18 09:20:44;;;;;;;15.85;9.40;;;18.70;99.90;;;;;;5054052;28;20041;-41
2023/08/18 09:23:10;;;;;;;16.92;9.02;;;18.70;99.90;;;;;;5051028;28;20503;-40
2023/08/18 09:25:36;;;;;;;14.52;9.35;;;18.80;99.90;;;;;;5053865;28;20044;-41
2023/08/18 09:28:05;;;;;;;13.20;9.05;;;18.90;99.90;;;;;;5051994;28;20045;-43
2023/08/18 09:30:32;;;;;;;12.27;8.40;;;19.00;99.90;;;;;;5053554;28;20055;-43
2023/08/18 09:33:04;;;;;;;12.20;8.25;;;19.10;99.90;;;;;;5049216;28;20101;-43
2023/08/18 09:35:36;;;;;;;11.80;8.85;;;19.20;99.90;;;;;;5052817;28;20516;-44
2023/08/18 09:38:02;;;;;;;14.05;8.52;;;19.30;99.90;;;;;;5051782;28;20113;-42
2023/08/18 09:40:29;;;;;;;12.07;8.52;;;19.40;99.90;;;;;;5053215;28;20080;-45
2023/08/18 09:42:55;;;;;;;12.32;7.90;;;19.40;99.90;;;;;;5051805;28;20542;-41
2023/08/18 09:45:23;;;;;;;13.07;8.43;;;19.50;99.90;;;;;;5048507;28;20536;-39
2023/08/18 09:47:53;;;;;;;11.77;9.00;;;19.80;99.90;;;;;;5051506;28;20219;-41
2023/08/18 09:50:20;;;;;;;12.05;8.65;;;20.00;99.90;;;;;;5050880;28;20360;-39
2023/08/18 09:52:51;;;;;;;14.23;9.38;;;20.00;99.90;;;;;;5048985;28;20242;-44
2023/08/18 09:55:23;;;;;;;16.25;10.68;;;20.30;99.90;;;;;;5050789;28;20584;-43
2023/08/18 09:58:01;;;;;;;13.13;10.15;;;20.40;99.90;;;;;;5045507;28;20036;-40
2023/08/18 10:00:28;;;;;;;13.55;9.00;;;20.50;99.90;;;;;;5051573;28;20406;-42
2023/08/18 10:02:59;;;;;;;13.20;9.25;;;20.60;99.90;;;;;;5049875;28;20051;-43
2023/08/18 10:05:27;;;;;;;13.13;9.25;;;20.60;99.90;;;;;;5052117;28;20051;-44
2023/08/18 10:07:53;;;;;;;12.80;10.30;;;20.60;99.90;;;;;;5051020;28;20036;-44
2023/08/18 10:10:21;;;;;;;15.75;9.98;;;20.60;99.90;;;;;;5052274;28;20043;-41
2023/08/18 10:12:47;;;;;;;17.30;10.65;;;20.50;99.90;;;;;;5051058;28;20505;-44
2023/08/18 10:15:13;;;;;;;14.32;9.68;;;20.50;99.90;;;;;;5046657;28;20383;-44
2023/08/18 10:17:40;;;;;;;12.57;9.35;;;20.60;99.90;;;;;;5053092;28;20538;-41
2023/08/18 10:20:12;;;;;;;15.82;9.95;;;20.80;99.90;;;;;;5050400;28;20048;-46
2023/08/18 10:22:38;;;;;;;14.48;9.93;;;20.90;99.90;;;;;;5048748;28;20044;-41
2023/08/18 10:25:06;;;;;;;12.38;10.13;;;21.10;99.90;;;;;;5051901;28;20045;-41
2023/08/18 10:27:36;;;;;;;12.52;10.18;;;21.10;99.90;;;;;;5049418;28;20528;-41
2023/08/18 10:30:26;;;;;;;14.20;10.10;;;21.00;99.90;;;;;;5053270;28;20055;-42
2023/08/18 10:32:54;;;;;;;13.93;8.27;;;20.90;99.90;;;;;;5056580;28;20044;-45
2023/08/18 10:35:20;;;;;;;13.60;9.88;;;20.90;99.90;;;;;;5056847;28;20048;-43
2023/08/18 10:37:58;;;;;;;14.77;10.25;;;20.60;99.90;;;;;;5054334;28;20560;-46
2023/08/18 10:40:34;;;;;;;12.10;9.40;;;20.50;99.90;;;;;;5055752;28;20045;-45
2023/08/18 10:43:07;;;;;;;13.43;10.15;;;20.40;99.90;;;;;;5056244;28;20736;-44
2023/08/18 10:45:33;;;;;;;11.73;9.43;;;20.40;99.90;;;;;;5025664;28;20402;-43
2023/08/18 10:48:03;;;;;;;13.05;9.57;;;20.50;99.90;;;;;;5057037;28;20119;-41
2023/08/18 10:50:30;;;;;;;13.05;10.57;;;20.60;99.90;;;;;;5056610;28;20068;-42
2023/08/18 10:52:56;;;;;;;15.57;11.10;;;20.70;99.90;;;;;;5052963;28;20114;-42
2023/08/18 10:55:23;;;;;;;15.20;10.43;;;20.70;99.90;;;;;;5056160;28;20123;-43
2023/08/18 10:57:49;;;;;;;13.70;10.52;;;20.80;99.90;;;;;;5057698;28;20075;-40
2023/08/18 11:00:18;;;;;;;13.68;10.45;;;20.80;99.90;;;;;;5056327;28;20120;-40
2023/08/18 11:02:44;;;;;;;13.27;11.23;;;20.90;99.90;;;;;;5054932;28;20044;-42
2023/08/18 11:05:10;;;;;;;14.60;11.10;;;21.00;99.90;;;;;;5044883;28;20415;-44
2023/08/18 11:07:36;;;;;;;14.68;10.82;;;21.00;99.90;;;;;;5052515;28;20096;-41
2023/08/18 11:10:18;;;;;;;14.35;11.88;;;21.10;99.90;;;;;;5057694;28;20050;-40
2023/08/18 11:12:45;;;;;;;13.35;11.38;;;21.10;99.90;;;;;;5052729;28;20086;-42
2023/08/18 11:15:12;;;;;;;16.13;11.98;;;21.10;99.90;;;;;;5049289;28;20521;-44
2023/08/18 11:17:38;;;;;;;17.98;12.55;;;21.10;99.90;;;;;;5057110;28;20567;-42
2023/08/18 11:20:11;;;;;;;13.77;12.18;;;21.10;99.90;;;;;;5055242;28;20329;-40
2023/08/18 11:22:37;;;;;;;;;;;21.20;99.90;;;;;;5062551;28;20653;-40
2023/08/18 11:25:04;;;;;;;15.25;11.50;;;21.20;99.90;;;;;;5061077;28;19924;-44
2023/08/18 11:27:31;;;;;;;15.63;11.82;;;21.30;99.90;;;;;;5056979;28;20045;-46
2023/08/18 11:29:58;;;;;;;18.27;12.77;;;21.50;99.90;;;;;;5051700;28;20138;-42
2023/08/18 11:32:25;;;;;;;14.07;12.07;;;21.50;99.90;;;;;;5044414;28;20123;-45
2023/08/18 11:34:51;;;;;;;14.68;13.02;;;21.60;99.90;;;;;;5045343;28;20051;-40
2023/08/18 11:37:21;;;;;;;13.05;11.70;;;21.70;99.90;;;;;;5055290;28;20039;-42
2023/08/18 11:39:48;;;;;;;15.93;12.18;;;21.70;99.90;;;;;;5053771;28;20041;-45
2023/08/18 11:42:13;;;;;;;18.58;12.68;;;21.70;99.90;;;;;;5053170;28;20487;-45
2023/08/18 11:44:40;;;;;;;14.95;11.70;;;21.90;99.90;;;;;;5053847;28;20149;-39
2023/08/18 11:47:08;;;;;;;15.27;13.48;;;22.00;99.90;;;;;;5056003;28;20055;-39
2023/08/18 11:49:35;;;;;;;16.13;13.07;;;22.10;99.90;;;;;;5054526;28;20059;-46
2023/08/18 11:52:04;;;;;;;19.13;13.30;;;22.30;99.90;;;;;;5047815;28;20487;-46
2023/08/18 11:54:35;;;;;;;16.77;13.65;;;22.40;99.90;;;;;;5052627;28;20048;-44
2023/08/18 11:57:05;;;;;;;14.65;12.93;;;22.50;99.90;;;;;;5054594;28;20510;-46
2023/08/18 11:59:31;;;;;;;15.48;13.07;;;22.50;99.90;;;;;;5057111;28;20055;-46
2023/08/18 12:02:04;;;;;;;14.68;12.90;;;22.60;99.90;;;;;;5056529;28;20056;-45
2023/08/18 12:04:34;;;;;;;14.93;12.95;;;22.60;99.90;;;;;;5056075;28;20054;-46
2023/08/18 12:07:00;;;;;;;18.67;12.60;;;22.80;99.90;;;;;;5070067;28;20490;-44
2023/08/18 12:09:26;;;;;;;14.18;12.60;;;23.00;99.90;;;;;;5075123;28;20059;-39
2023/08/18 12:11:52;;;;;;;18.67;13.13;;;23.20;99.90;;;;;;5075759;28;20051;-46
2023/08/18 12:14:18;;;;;;;15.02;12.98;;;23.30;99.90;;;;;;5064003;28;20049;-42
2023/08/18 12:16:44;;;;;;;13.77;12.38;;;23.20;99.90;;;;;;5054533;28;20048;-43
2023/08/18 12:19:11;;;;;;;14.55;13.10;;;23.20;99.90;;;;;;5055465;28;20052;-44
2023/08/18 12:21:37;;;;;;;15.13;13.57;;;23.20;99.90;;;;;;5054362;28;20497;-42
2023/08/18 12:24:07;;;;;;;14.20;12.68;;;23.30;99.90;;;;;;5053375;28;20663;-42
2023/08/18 12:26:33;;;;;;;15.18;12.48;;;23.50;99.90;;;;;;5054152;28;20142;-40
2023/08/18 12:29:00;;;;;;;14.05;12.35;;;23.60;99.90;;;;;;5057005;28;20506;-44
2023/08/18 12:31:26;;;;;;;14.55;13.05;;;23.80;99.90;;;;;;5054730;28;20119;-39
2023/08/18 12:33:52;;;;;;;14.05;12.65;;;23.90;99.90;;;;;;5075786;28;20406;-41